AirNav   TITAN Aviation Fuels
 
 458 users online  

1XS2 Skye Dance Airport
Elgin, Texas, USA

GOING TO ELGIN?


FAA INFORMATION EFFECTIVE 22 APRIL 2021

Location

FAA Identifier: 1XS2
Lat/Long: 30-22-50.7440N 097-25-38.9910W
30-22.845733N 097-25.649850W
30.3807622,-97.4274975
(estimated)
Elevation: 532 ft. / 162 m (estimated)
Variation: 07E (1990)
From city: 3 miles E of ELGIN, TX
Time zone: UTC -5 (UTC -6 during Standard Time)
Zip code: 78621

Airport Operations

Airport use: Private use. Permission required prior to landing
Activation date: 03/1994
Control tower: no
ARTCC: HOUSTON CENTER
FSS: SAN ANGELO FLIGHT SERVICE STATION
Attendance: UNATNDD
Segmented circle: no

Airport Communications

WX AWOS-3 at EDC (7 nm W): 118.825 (512-616-2967)
WX AWOS-3PT at T74 (12 nm N): 119.75 (512-352-4995)
WX ASOS at AUS (17 nm SW): PHONE 512-369-7881

Nearby radio navigation aids

VOR radial/distance  VOR name  Freq  Var
CWKr083/5.3CENTEX VORTAC112.8006E

Airport Services

Runway Information

Runway 12/30

Dimensions: 2400 x 100 ft. / 732 x 30 m
Surface: turf
RUNWAY 12  RUNWAY 30
Traffic pattern: leftleft

Runway 18/36

Dimensions: 2400 x 100 ft. / 732 x 30 m
Surface: turf
RUNWAY 18  RUNWAY 36
Traffic pattern: leftleft

Airport Ownership and Management from official FAA records

Ownership: Privately-owned
Owner: MANDOT & HOWELL
PO BOX 858
MANOR, TX 78653
Phone 512-281-9573
Manager: DAVID MANDOT
PO BOX 858
MANOR, TX 78653
Phone 512-281-9573

Airport Operational Statistics

Aircraft based on the field: 2
Single engine airplanes: 1
Ultralights: 1
    

Additional Remarks

RY MUDDY AND SOFT WHEN WET.
FOR CD CTC AUSTIN APCH AT 512-269-7865.

Instrument Procedures

There are no published instrument procedures at 1XS2.

Some nearby airports with instrument procedures:

KEDC - Austin Executive Airport (7 nm W)
T74 - Taylor Municipal Airport (12 nm N)
KAUS - Austin-Bergstrom International Airport (17 nm SW)
KGTU - Georgetown Municipal Airport (22 nm NW)
KGYB - Giddings-Lee County Airport (26 nm SE)
 
Loc | Ops | Rwys | IFR | FBO | Links
Com | Nav | Svcs | Stats | Notes
Area around 1XS2 (Skye Dance Airport)
 
Road maps at: MapQuest Bing Google
 
Aerial photo
No photo
 
Sectional chart

 
Airport distance calculator
Flying to Skye Dance Airport? Find the distance to fly.

From to 1XS2

Sunrise and sunset
Times for 09-May-2021
 Local
(UTC-5)
 Zulu
(UTC)
Morning civil twilight06:1511:15
Sunrise06:4111:41
Sunset20:1201:12
Evening civil twilight20:3801:38

Current date and time
Zulu (UTC)  09-May-2021 06:39:23
Local (UTC-5)  09-May-2021 01:39:23
 
METAR
KEDC 
7nm W 
090615Z AUTO 19014G21KT 8SM BKN019 OVC026 24/20 A2982 RMK AO2
KT74 
12nm N 
090615Z AUTO 18012G18KT 10SM OVC020 24/21 A2984 RMK AO2 T02390208
KATT 
15nm W 
090616Z AUTO VRB05KT 10SM BKN020 OVC027 24/20 A2984 RMK AO2 T02440200 $
KAUS 
15nm W 
090553Z 18013G25KT 10SM OVC021 23/21 A2982 RMK AO2 PK WND 17026/0528 SLP089 T02330211 10278 20233 403110178 53007
TAF
KAUS 
15nm W 
090520Z 0906/1012 17014KT P6SM BKN015 OVC025 FM091700 18014KT P6SM BKN035 FM092200 14008KT P6SM BKN050 FM100400 10007KT P6SM OVC015
NOTAMs
Click for the latest NOTAMs
NOTAMs are issued by the DoD/FAA and will open in a separate window not controlled by AirNav.

 

 
 

Would you like to see your business listed on this page?

 If your business provides an interesting product or service to pilots, flight crews, aircraft, or users of the Skye Dance Airport, you should consider listing it here.  To start the listing process, click on the button below
 
Add a business
 

Other Pages about Skye Dance Airport

Update a link
 
Copyright © AirNav, LLC. All rights reserved. Privacy Policy  Contact